sensor_id;sensor_type;location;lat;lon;timestamp;pressure;altitude;pressure_sealevel;temperature;humidity
52535;BME280;38443;53.164;5.802;2023-12-28T00:01:29;100814.13;;;7.58;100.00
52535;BME280;38443;53.164;5.802;2023-12-28T00:03:54;100811.38;;;7.62;100.00
52535;BME280;38443;53.164;5.802;2023-12-28T00:06:19;100818.47;;;7.64;100.00
52535;BME280;38443;53.164;5.802;2023-12-28T00:08:44;100825.56;;;7.64;100.00
52535;BME280;38443;53.164;5.802;2023-12-28T00:11:09;100835.28;;;7.68;100.00
52535;BME280;38443;53.164;5.802;2023-12-28T00:13:35;100830.81;;;7.68;100.00
52535;BME280;38443;53.164;5.802;2023-12-28T00:16:00;100838.81;;;7.67;100.00
52535;BME280;38443;53.164;5.802;2023-12-28T00:18:26;100831.66;;;7.70;100.00
52535;BME280;38443;53.164;5.802;2023-12-28T00:20:51;100836.97;;;7.72;100.00
52535;BME280;38443;53.164;5.802;2023-12-28T00:23:17;100838.81;;;7.68;100.00
52535;BME280;38443;53.164;5.802;2023-12-28T00:25:42;100847.69;;;7.69;100.00
52535;BME280;38443;53.164;5.802;2023-12-28T00:28:08;100858.34;;;7.67;100.00
52535;BME280;38443;53.164;5.802;2023-12-28T00:30:33;100867.31;;;7.63;100.00
52535;BME280;38443;53.164;5.802;2023-12-28T00:32:58;100875.34;;;7.60;100.00
52535;BME280;38443;53.164;5.802;2023-12-28T00:35:23;100869.19;;;7.58;100.00
52535;BME280;38443;53.164;5.802;2023-12-28T00:37:49;100877.22;;;7.55;100.00
52535;BME280;38443;53.164;5.802;2023-12-28T00:40:14;100885.25;;;7.52;100.00
52535;BME280;38443;53.164;5.802;2023-12-28T00:42:40;100885.28;;;7.50;100.00
52535;BME280;38443;53.164;5.802;2023-12-28T00:45:07;100884.44;;;7.48;100.00
52535;BME280;38443;53.164;5.802;2023-12-28T00:47:32;100890.72;;;7.44;100.00
52535;BME280;38443;53.164;5.802;2023-12-28T00:49:57;100904.03;;;7.43;100.00
52535;BME280;38443;53.164;5.802;2023-12-28T00:52:23;100911.19;;;7.39;100.00
52535;BME280;38443;53.164;5.802;2023-12-28T00:54:48;100915.66;;;7.37;100.00
52535;BME280;38443;53.164;5.802;2023-12-28T00:57:13;100910.28;;;7.40;100.00
52535;BME280;38443;53.164;5.802;2023-12-28T00:59:39;100921.84;;;7.37;100.00
52535;BME280;38443;53.164;5.802;2023-12-28T01:02:04;100928.09;;;7.36;100.00
52535;BME280;38443;53.164;5.802;2023-12-28T01:04:29;100936.09;;;7.36;100.00
52535;BME280;38443;53.164;5.802;2023-12-28T01:06:54;100940.56;;;7.34;100.00
52535;BME280;38443;53.164;5.802;2023-12-28T01:09:20;100936.13;;;7.33;100.00
52535;BME280;38443;53.164;5.802;2023-12-28T01:11:45;100941.44;;;7.33;100.00
52535;BME280;38443;53.164;5.802;2023-12-28T01:14:11;100939.72;;;7.31;100.00
52535;BME280;38443;53.164;5.802;2023-12-28T01:16:36;100947.69;;;7.32;100.00
52535;BME280;38443;53.164;5.802;2023-12-28T01:19:04;100951.19;;;7.34;100.00
52535;BME280;38443;53.164;5.802;2023-12-28T01:21:30;100946.75;;;7.33;100.00
52535;BME280;38443;53.164;5.802;2023-12-28T01:23:55;100948.53;;;7.34;100.00
52535;BME280;38443;53.164;5.802;2023-12-28T01:26:20;100955.59;;;7.35;100.00
52535;BME280;38443;53.164;5.802;2023-12-28T01:28:46;100957.38;;;7.36;100.00
52535;BME280;38443;53.164;5.802;2023-12-28T01:31:11;100936.03;;;7.39;100.00
52535;BME280;38443;53.164;5.802;2023-12-28T01:33:36;100947.50;;;7.43;100.00
52535;BME280;38443;53.164;5.802;2023-12-28T01:36:02;100949.31;;;7.43;100.00
52535;BME280;38443;53.164;5.802;2023-12-28T01:38:27;100934.19;;;7.45;100.00
52535;BME280;38443;53.164;5.802;2023-12-28T01:40:53;100938.56;;;7.47;100.00
52535;BME280;38443;53.164;5.802;2023-12-28T01:43:19;100945.59;;;7.53;100.00
52535;BME280;38443;53.164;5.802;2023-12-28T01:45:45;100947.31;;;7.55;100.00
52535;BME280;38443;53.164;5.802;2023-12-28T01:48:11;100951.75;;;7.58;100.00
52535;BME280;38443;53.164;5.802;2023-12-28T01:50:38;100957.94;;;7.60;100.00
52535;BME280;38443;53.164;5.802;2023-12-28T01:53:04;100959.75;;;7.58;100.00
52535;BME280;38443;53.164;5.802;2023-12-28T01:55:30;100967.69;;;7.59;100.00
52535;BME280;38443;53.164;5.802;2023-12-28T01:57:56;100959.69;;;7.61;100.00
52535;BME280;38443;53.164;5.802;2023-12-28T02:00:22;100977.44;;;7.61;100.00
52535;BME280;38443;53.164;5.802;2023-12-28T02:02:48;100973.00;;;7.59;100.00
52535;BME280;38443;53.164;5.802;2023-12-28T02:05:14;100965.94;;;7.60;100.00
52535;BME280;38443;53.164;5.802;2023-12-28T02:07:40;100973.00;;;7.61;100.00
52535;BME280;38443;53.164;5.802;2023-12-28T02:10:05;100953.41;;;7.64;100.00
52535;BME280;38443;53.164;5.802;2023-12-28T02:12:31;100971.16;;;7.66;100.00
52535;BME280;38443;53.164;5.802;2023-12-28T02:14:57;100960.50;;;7.66;100.00
52535;BME280;38443;53.164;5.802;2023-12-28T02:17:34;100956.88;;;7.70;100.00
52535;BME280;38443;53.164;5.802;2023-12-28T02:20:01;100949.66;;;7.78;100.00
52535;BME280;38443;53.164;5.802;2023-12-28T02:22:31;100938.91;;;7.82;100.00
52535;BME280;38443;53.164;5.802;2023-12-28T02:27:41;100930.91;;;7.83;100.00
52535;BME280;38443;53.164;5.802;2023-12-28T02:30:09;100921.00;;;7.91;100.00
52535;BME280;38443;53.164;5.802;2023-12-28T02:35:42;100908.38;;;8.03;100.00
52535;BME280;38443;53.164;5.802;2023-12-28T02:38:14;100902.06;;;8.08;100.00
52535;BME280;38443;53.164;5.802;2023-12-28T02:40:42;100893.13;;;8.09;100.00
52535;BME280;38443;53.164;5.802;2023-12-28T02:43:11;100886.84;;;8.13;100.00
52535;BME280;38443;53.164;5.802;2023-12-28T02:45:38;100877.84;;;8.21;100.00
52535;BME280;38443;53.164;5.802;2023-12-28T02:48:04;100861.75;;;8.24;100.00
52535;BME280;38443;53.164;5.802;2023-12-28T02:50:30;100843.09;;;8.24;100.00
52535;BME280;38443;53.164;5.802;2023-12-28T02:52:56;100857.38;;;8.21;100.00
52535;BME280;38443;53.164;5.802;2023-12-28T02:55:21;100828.88;;;8.23;100.00
52535;BME280;38443;53.164;5.802;2023-12-28T02:57:46;100823.56;;;8.23;100.00
52535;BME280;38443;53.164;5.802;2023-12-28T03:00:12;100825.25;;;8.27;100.00
52535;BME280;38443;53.164;5.802;2023-12-28T03:02:37;100802.09;;;8.29;100.00
52535;BME280;38443;53.164;5.802;2023-12-28T03:05:06;100788.75;;;8.31;100.00
52535;BME280;38443;53.164;5.802;2023-12-28T03:07:33;100798.59;;;8.27;100.00
52535;BME280;38443;53.164;5.802;2023-12-28T03:09:58;100767.44;;;8.29;100.00
52535;BME280;38443;53.164;5.802;2023-12-28T03:12:23;100752.38;;;8.27;100.00
52535;BME280;38443;53.164;5.802;2023-12-28T03:14:49;100746.91;;;8.33;100.00
52535;BME280;38443;53.164;5.802;2023-12-28T03:17:14;100738.94;;;8.31;100.00
52535;BME280;38443;53.164;5.802;2023-12-28T03:19:39;100724.72;;;8.32;100.00
52535;BME280;38443;53.164;5.802;2023-12-28T03:22:05;100717.59;;;8.33;100.00
52535;BME280;38443;53.164;5.802;2023-12-28T03:24:30;100698.91;;;8.33;100.00
52535;BME280;38443;53.164;5.802;2023-12-28T03:26:56;100703.44;;;8.29;100.00
52535;BME280;38443;53.164;5.802;2023-12-28T03:29:21;100675.03;;;8.28;100.00
52535;BME280;38443;53.164;5.802;2023-12-28T03:31:46;100674.22;;;8.25;100.00
52535;BME280;38443;53.164;5.802;2023-12-28T03:34:11;100660.91;;;8.23;100.00
52535;BME280;38443;53.164;5.802;2023-12-28T03:36:37;100660.91;;;8.23;100.00
52535;BME280;38443;53.164;5.802;2023-12-28T03:39:02;100673.25;;;8.27;100.00
52535;BME280;38443;53.164;5.802;2023-12-28T03:41:29;100662.53;;;8.30;100.00
52535;BME280;38443;53.164;5.802;2023-12-28T03:43:54;100672.28;;;8.31;100.00
52535;BME280;38443;53.164;5.802;2023-12-28T03:46:20;100644.69;;;8.34;100.00
52535;BME280;38443;53.164;5.802;2023-12-28T03:48:45;100656.19;;;8.36;100.00
52535;BME280;38443;53.164;5.802;2023-12-28T03:51:15;100669.41;;;8.41;100.00
52535;BME280;38443;53.164;5.802;2023-12-28T03:53:41;100671.97;;;8.47;100.00
52535;BME280;38443;53.164;5.802;2023-12-28T03:56:07;100662.28;;;8.43;100.00
52535;BME280;38443;53.164;5.802;2023-12-28T03:58:32;100652.50;;;8.42;100.00
52535;BME280;38443;53.164;5.802;2023-12-28T04:00:58;100650.63;;;8.47;100.00
52535;BME280;38443;53.164;5.802;2023-12-28T04:03:23;100648.84;;;8.46;100.00
52535;BME280;38443;53.164;5.802;2023-12-28T04:05:48;100634.59;;;8.48;100.00
52535;BME280;38443;53.164;5.802;2023-12-28T04:08:14;100642.63;;;8.47;100.00
52535;BME280;38443;53.164;5.802;2023-12-28T04:10:39;100640.78;;;8.50;100.00
52535;BME280;38443;53.164;5.802;2023-12-28T04:13:04;100639.03;;;8.48;100.00
52535;BME280;38443;53.164;5.802;2023-12-28T04:15:30;100626.50;;;8.51;100.00
52535;BME280;38443;53.164;5.802;2023-12-28T04:17:56;100637.13;;;8.54;100.00
52535;BME280;38443;53.164;5.802;2023-12-28T04:20:21;100630.78;;;8.58;100.00
52535;BME280;38443;53.164;5.802;2023-12-28T04:22:47;100621.78;;;8.63;100.00
52535;BME280;38443;53.164;5.802;2023-12-28T04:25:12;100627.97;;;8.65;100.00
52535;BME280;38443;53.164;5.802;2023-12-28T04:27:38;100630.47;;;8.71;100.00
52535;BME280;38443;53.164;5.802;2023-12-28T04:30:05;100640.31;;;8.69;100.00
52535;BME280;38443;53.164;5.802;2023-12-28T04:32:31;100629.56;;;8.72;100.00
52535;BME280;38443;53.164;5.802;2023-12-28T04:34:56;100622.34;;;8.75;100.00
52535;BME280;38443;53.164;5.802;2023-12-28T04:37:22;100625.97;;;8.73;100.00
52535;BME280;38443;53.164;5.802;2023-12-28T04:39:47;100616.97;;;8.77;100.00
52535;BME280;38443;53.164;5.802;2023-12-28T04:42:12;100608.09;;;8.76;100.00
52535;BME280;38443;53.164;5.802;2023-12-28T04:44:38;100612.66;;;8.71;100.00
52535;BME280;38443;53.164;5.802;2023-12-28T04:47:04;100596.75;;;8.68;100.00
52535;BME280;38443;53.164;5.802;2023-12-28T04:49:29;100598.59;;;8.66;100.00
52535;BME280;38443;53.164;5.802;2023-12-28T04:51:55;100594.97;;;8.69;100.00
52535;BME280;38443;53.164;5.802;2023-12-28T04:54:20;100591.47;;;8.65;100.00
52535;BME280;38443;53.164;5.802;2023-12-28T04:56:46;100587.91;;;8.66;100.00
52535;BME280;38443;53.164;5.802;2023-12-28T04:59:11;100591.47;;;8.65;100.00
52535;BME280;38443;53.164;5.802;2023-12-28T05:01:43;100597.69;;;8.66;100.00
52535;BME280;38443;53.164;5.802;2023-12-28T05:04:09;100606.53;;;8.68;100.00
52535;BME280;38443;53.164;5.802;2023-12-28T05:06:34;100603.97;;;8.65;100.00
52535;BME280;38443;53.164;5.802;2023-12-28T05:09:00;100610.13;;;8.67;100.00
52535;BME280;38443;53.164;5.802;2023-12-28T05:11:26;100612.81;;;8.65;100.00
52535;BME280;38443;53.164;5.802;2023-12-28T05:13:51;100608.59;;;8.56;100.00
52535;BME280;38443;53.164;5.802;2023-12-28T05:16:16;100617.59;;;8.52;100.00
52535;BME280;38443;53.164;5.802;2023-12-28T05:18:42;100612.34;;;8.49;100.00
52535;BME280;38443;53.164;5.802;2023-12-28T05:21:07;100607.88;;;8.50;100.00
52535;BME280;38443;53.164;5.802;2023-12-28T05:23:33;100616.81;;;8.47;100.00
52535;BME280;38443;53.164;5.802;2023-12-28T05:25:58;100606.13;;;8.49;100.00
52535;BME280;38443;53.164;5.802;2023-12-28T05:28:23;100607.03;;;8.48;100.00
52535;BME280;38443;53.164;5.802;2023-12-28T05:30:48;100624.91;;;8.44;100.00
52535;BME280;38443;53.164;5.802;2023-12-28T05:33:14;100618.81;;;8.37;100.00
52535;BME280;38443;53.164;5.802;2023-12-28T05:35:39;100613.56;;;8.34;100.00
52535;BME280;38443;53.164;5.802;2023-12-28T05:38:04;100609.22;;;8.30;100.00
52535;BME280;38443;53.164;5.802;2023-12-28T05:40:30;100620.75;;;8.31;100.00
52535;BME280;38443;53.164;5.802;2023-12-28T05:42:56;100634.06;;;8.32;100.00
52535;BME280;38443;53.164;5.802;2023-12-28T05:45:21;100621.63;;;8.31;100.00
52535;BME280;38443;53.164;5.802;2023-12-28T05:47:48;100624.28;;;8.31;100.00
52535;BME280;38443;53.164;5.802;2023-12-28T05:50:13;100605.63;;;8.31;100.00
52535;BME280;38443;53.164;5.802;2023-12-28T05:52:38;100606.31;;;8.39;100.00
52535;BME280;38443;53.164;5.802;2023-12-28T05:55:04;100611.53;;;8.46;100.00
52535;BME280;38443;53.164;5.802;2023-12-28T05:57:29;100630.13;;;8.49;100.00
52535;BME280;38443;53.164;5.802;2023-12-28T05:59:56;100613.19;;;8.50;100.00
52535;BME280;38443;53.164;5.802;2023-12-28T06:02:22;100615.69;;;8.57;100.00
52535;BME280;38443;53.164;5.802;2023-12-28T06:04:47;100635.19;;;8.59;100.00
52535;BME280;38443;53.164;5.802;2023-12-28T06:07:12;100636.00;;;8.63;100.00
52535;BME280;38443;53.164;5.802;2023-12-28T06:09:38;100610.19;;;8.64;100.00
52535;BME280;38443;53.164;5.802;2023-12-28T06:12:05;100612.78;;;8.67;100.00
52535;BME280;38443;53.164;5.802;2023-12-28T06:14:30;100619.78;;;8.72;100.00
52535;BME280;38443;53.164;5.802;2023-12-28T06:16:55;100610.00;;;8.71;100.00
52535;BME280;38443;53.164;5.802;2023-12-28T06:19:21;100578.84;;;8.72;100.00
52535;BME280;38443;53.164;5.802;2023-12-28T06:21:47;100609.16;;;8.69;100.00
52535;BME280;38443;53.164;5.802;2023-12-28T06:24:12;100622.59;;;8.66;100.00
52535;BME280;38443;53.164;5.802;2023-12-28T06:26:42;100615.63;;;8.61;100.00
52535;BME280;38443;53.164;5.802;2023-12-28T06:29:08;100621.97;;;8.55;100.00
52535;BME280;38443;53.164;5.802;2023-12-28T06:31:34;100637.16;;;8.51;100.00
52535;BME280;38443;53.164;5.802;2023-12-28T06:34:05;100607.00;;;8.49;100.00
52535;BME280;38443;53.164;5.802;2023-12-28T06:36:31;100606.97;;;8.51;100.00
52535;BME280;38443;53.164;5.802;2023-12-28T06:38:57;100616.78;;;8.49;100.00
52535;BME280;38443;53.164;5.802;2023-12-28T06:41:22;100622.25;;;8.44;100.00
52535;BME280;38443;53.164;5.802;2023-12-28T06:43:47;100635.53;;;8.46;100.00
52535;BME280;38443;53.164;5.802;2023-12-28T06:46:13;100628.44;;;8.46;100.00
52535;BME280;38443;53.164;5.802;2023-12-28T06:48:38;100629.19;;;8.50;100.00
52535;BME280;38443;53.164;5.802;2023-12-28T06:51:18;100645.88;;;8.59;100.00
52535;BME280;38443;53.164;5.802;2023-12-28T06:53:44;100646.66;;;8.65;100.00
52535;BME280;38443;53.164;5.802;2023-12-28T06:56:09;100624.44;;;8.64;100.00
52535;BME280;38443;53.164;5.802;2023-12-28T06:58:34;100647.69;;;8.57;100.00
52535;BME280;38443;53.164;5.802;2023-12-28T07:01:03;100654.03;;;8.53;100.00
52535;BME280;38443;53.164;5.802;2023-12-28T07:03:28;100658.59;;;8.48;100.00
52535;BME280;38443;53.164;5.802;2023-12-28T07:05:55;100658.75;;;8.42;100.00
52535;BME280;38443;53.164;5.802;2023-12-28T07:08:20;100660.50;;;8.42;100.00
52535;BME280;38443;53.164;5.802;2023-12-28T07:10:46;100664.06;;;8.41;100.00
52535;BME280;38443;53.164;5.802;2023-12-28T07:13:11;100659.66;;;8.41;100.00
52535;BME280;38443;53.164;5.802;2023-12-28T07:15:36;100666.75;;;8.42;100.00
52535;BME280;38443;53.164;5.802;2023-12-28T07:18:02;100668.56;;;8.38;100.00
52535;BME280;38443;53.164;5.802;2023-12-28T07:20:27;100671.25;;;8.37;100.00
52535;BME280;38443;53.164;5.802;2023-12-28T07:22:52;100673.06;;;8.36;100.00
52535;BME280;38443;53.164;5.802;2023-12-28T07:25:17;100698.88;;;8.36;100.00
52535;BME280;38443;53.164;5.802;2023-12-28T07:27:43;100698.81;;;8.37;100.00
52535;BME280;38443;53.164;5.802;2023-12-28T07:30:09;100686.28;;;8.43;100.00
52535;BME280;38443;53.164;5.802;2023-12-28T07:32:34;100702.19;;;8.47;100.00
52535;BME280;38443;53.164;5.802;2023-12-28T07:35:00;100711.84;;;8.53;100.00
52535;BME280;38443;53.164;5.802;2023-12-28T07:37:25;100726.88;;;8.55;100.00
52535;BME280;38443;53.164;5.802;2023-12-28T07:39:50;100731.38;;;8.53;100.00
52535;BME280;38443;53.164;5.802;2023-12-28T07:42:16;100716.34;;;8.51;100.00
52535;BME280;38443;53.164;5.802;2023-12-28T07:44:41;100749.06;;;8.57;100.00
52535;BME280;38443;53.164;5.802;2023-12-28T07:47:06;100759.75;;;8.57;100.00
52535;BME280;38443;53.164;5.802;2023-12-28T07:49:32;100758.00;;;8.56;100.00
52535;BME280;38443;53.164;5.802;2023-12-28T07:51:57;100759.75;;;8.57;100.00
52535;BME280;38443;53.164;5.802;2023-12-28T07:54:23;100774.84;;;8.58;100.00
52535;BME280;38443;53.164;5.802;2023-12-28T07:56:48;100765.06;;;8.57;100.00
52535;BME280;38443;53.164;5.802;2023-12-28T07:59:14;100758.88;;;8.57;100.00
52535;BME280;38443;53.164;5.802;2023-12-28T08:01:39;100752.66;;;8.56;100.00
52535;BME280;38443;53.164;5.802;2023-12-28T08:04:04;100754.41;;;8.57;100.00
52535;BME280;38443;53.164;5.802;2023-12-28T08:06:30;100748.16;;;8.60;100.00
52535;BME280;38443;53.164;5.802;2023-12-28T08:08:59;100734.69;;;8.65;100.00
52535;BME280;38443;53.164;5.802;2023-12-28T08:11:26;100755.91;;;8.69;100.00
52535;BME280;38443;53.164;5.802;2023-12-28T08:13:52;100754.06;;;8.73;100.00
52535;BME280;38443;53.164;5.802;2023-12-28T08:16:17;100752.25;;;8.75;100.00
52535;BME280;38443;53.164;5.802;2023-12-28T08:18:42;100761.13;;;8.75;100.00
52535;BME280;38443;53.164;5.802;2023-12-28T08:21:07;100760.31;;;8.72;100.00
52535;BME280;38443;53.164;5.802;2023-12-28T08:23:33;100771.03;;;8.70;100.00
52535;BME280;38443;53.164;5.802;2023-12-28T08:25:58;100763.94;;;8.68;100.00
52535;BME280;38443;53.164;5.802;2023-12-28T08:28:23;100753.34;;;8.66;100.00
52535;BME280;38443;53.164;5.802;2023-12-28T08:30:48;100775.59;;;8.65;100.00
52535;BME280;38443;53.164;5.802;2023-12-28T08:33:14;100769.44;;;8.62;100.00
52535;BME280;38443;53.164;5.802;2023-12-28T08:35:39;100772.03;;;8.65;100.00
52535;BME280;38443;53.164;5.802;2023-12-28T08:38:05;100774.69;;;8.66;100.00
52535;BME280;38443;53.164;5.802;2023-12-28T08:40:31;100785.38;;;8.65;100.00
52535;BME280;38443;53.164;5.802;2023-12-28T08:42:57;100788.91;;;8.65;100.00
52535;BME280;38443;53.164;5.802;2023-12-28T08:45:22;100772.88;;;8.67;100.00
52535;BME280;38443;53.164;5.802;2023-12-28T08:47:47;100785.28;;;8.69;100.00
52535;BME280;38443;53.164;5.802;2023-12-28T08:50:13;100803.97;;;8.68;100.00
52535;BME280;38443;53.164;5.802;2023-12-28T08:52:38;100786.13;;;8.70;100.00
52535;BME280;38443;53.164;5.802;2023-12-28T08:55:04;100800.38;;;8.70;100.00
52535;BME280;38443;53.164;5.802;2023-12-28T08:57:30;100801.28;;;8.69;100.00
52535;BME280;38443;53.164;5.802;2023-12-28T08:59:56;100795.09;;;8.67;100.00
52535;BME280;38443;53.164;5.802;2023-12-28T09:02:21;100812.03;;;8.66;100.00
52535;BME280;38443;53.164;5.802;2023-12-28T09:04:46;100813.78;;;8.67;100.00
52535;BME280;38443;53.164;5.802;2023-12-28T09:07:12;100813.81;;;8.66;100.00
52535;BME280;38443;53.164;5.802;2023-12-28T09:09:38;100813.78;;;8.67;100.00
52535;BME280;38443;53.164;5.802;2023-12-28T09:12:03;100820.88;;;8.68;100.00
52535;BME280;38443;53.164;5.802;2023-12-28T09:14:28;100830.59;;;8.71;100.00
52535;BME280;38443;53.164;5.802;2023-12-28T09:16:54;100837.66;;;8.73;100.00
52535;BME280;38443;53.164;5.802;2023-12-28T09:19:19;100828.72;;;8.76;100.00
52535;BME280;38443;53.164;5.802;2023-12-28T09:21:44;100844.63;;;8.81;100.00
52535;BME280;38443;53.164;5.802;2023-12-28T09:24:09;100843.69;;;8.82;100.00
52535;BME280;38443;53.164;5.802;2023-12-28T09:26:35;100838.31;;;8.85;100.00
52535;BME280;38443;53.164;5.802;2023-12-28T09:29:00;100853.47;;;8.84;100.00
52535;BME280;38443;53.164;5.802;2023-12-28T09:31:25;100838.34;;;8.83;100.00
52535;BME280;38443;53.164;5.802;2023-12-28T09:33:51;100832.09;;;8.84;100.00
52535;BME280;38443;53.164;5.802;2023-12-28T09:36:17;100851.63;;;8.86;100.00
52535;BME280;38443;53.164;5.802;2023-12-28T09:38:42;100847.22;;;8.84;100.00
52535;BME280;38443;53.164;5.802;2023-12-28T09:41:12;100842.69;;;8.87;100.00
52535;BME280;38443;53.164;5.802;2023-12-28T09:46:09;100849.72;;;8.91;100.00
52535;BME280;38443;53.164;5.802;2023-12-28T09:48:37;100854.09;;;8.94;100.00
52535;BME280;38443;53.164;5.802;2023-12-28T09:51:03;100845.25;;;8.92;100.00
52535;BME280;38443;53.164;5.802;2023-12-28T09:53:28;100857.69;;;8.94;100.00
52535;BME280;38443;53.164;5.802;2023-12-28T09:55:54;100860.22;;;8.99;100.00
52535;BME280;38443;53.164;5.802;2023-12-28T09:58:20;100849.56;;;8.99;100.00
52535;BME280;38443;53.164;5.802;2023-12-28T10:00:48;100853.09;;;8.99;100.00
52535;BME280;38443;53.164;5.802;2023-12-28T10:03:15;100854.88;;;8.99;100.00
52535;BME280;38443;53.164;5.802;2023-12-28T10:05:41;100852.19;;;9.01;100.00
52535;BME280;38443;53.164;5.802;2023-12-28T10:08:07;100854.84;;;9.02;100.00
52535;BME280;38443;53.164;5.802;2023-12-28T10:10:32;100866.38;;;9.03;100.00
52535;BME280;38443;53.164;5.802;2023-12-28T10:12:58;100860.13;;;9.04;100.00
52535;BME280;38443;53.164;5.802;2023-12-28T10:15:24;100859.22;;;9.05;100.00
52535;BME280;38443;53.164;5.802;2023-12-28T10:17:51;100862.78;;;9.04;100.00
52535;BME280;38443;53.164;5.802;2023-12-28T10:20:16;100867.22;;;9.05;100.00
52535;BME280;38443;53.164;5.802;2023-12-28T10:22:42;100835.16;;;9.06;100.00
52535;BME280;38443;53.164;5.802;2023-12-28T10:25:09;100857.31;;;9.10;100.00
52535;BME280;38443;53.164;5.802;2023-12-28T10:27:39;100874.25;;;9.09;100.00
52535;BME280;38443;53.164;5.802;2023-12-28T10:30:06;100860.94;;;9.07;100.00
52535;BME280;38443;53.164;5.802;2023-12-28T10:32:32;100868.03;;;9.08;100.00
52535;BME280;38443;53.164;5.802;2023-12-28T10:34:57;100869.78;;;9.09;100.00
52535;BME280;38443;53.164;5.802;2023-12-28T10:37:23;100859.91;;;9.13;100.00
52535;BME280;38443;53.164;5.802;2023-12-28T10:39:53;100868.81;;;9.12;100.00
52535;BME280;38443;53.164;5.802;2023-12-28T10:44:52;100864.38;;;9.12;100.00
52535;BME280;38443;53.164;5.802;2023-12-28T10:47:19;100887.50;;;9.13;100.00
52535;BME280;38443;53.164;5.802;2023-12-28T10:49:47;100880.34;;;9.14;100.00
52535;BME280;38443;53.164;5.802;2023-12-28T10:52:16;100875.84;;;9.16;100.00
52535;BME280;38443;53.164;5.802;2023-12-28T10:54:50;100877.63;;;9.17;100.00
52535;BME280;38443;53.164;5.802;2023-12-28T10:57:29;100874.03;;;9.18;100.00
52535;BME280;38443;53.164;5.802;2023-12-28T11:00:04;100884.63;;;9.23;100.00
52535;BME280;38443;53.164;5.802;2023-12-28T11:02:38;100882.78;;;9.26;100.00
52535;BME280;38443;53.164;5.802;2023-12-28T11:05:05;100872.94;;;9.28;100.00
52535;BME280;38443;53.164;5.802;2023-12-28T11:07:32;100858.63;;;9.29;100.00
52535;BME280;38443;53.164;5.802;2023-12-28T11:09:59;100859.50;;;9.30;100.00
52535;BME280;38443;53.164;5.802;2023-12-28T11:12:27;100846.97;;;9.33;100.00
52535;BME280;38443;53.164;5.802;2023-12-28T11:14:53;100871.00;;;9.33;100.00
52535;BME280;38443;53.164;5.802;2023-12-28T11:17:20;100847.91;;;9.32;100.00
52535;BME280;38443;53.164;5.802;2023-12-28T11:19:46;100844.31;;;9.32;100.00
52535;BME280;38443;53.164;5.802;2023-12-28T11:22:13;100847.91;;;9.32;100.00
52535;BME280;38443;53.164;5.802;2023-12-28T11:24:40;100850.50;;;9.34;100.00
52535;BME280;38443;53.164;5.802;2023-12-28T11:27:05;100851.41;;;9.34;100.00
52535;BME280;38443;53.164;5.802;2023-12-28T11:29:31;100852.31;;;9.33;100.00
52535;BME280;38443;53.164;5.802;2023-12-28T11:31:58;100862.09;;;9.34;100.00
52535;BME280;38443;53.164;5.802;2023-12-28T11:34:25;100862.88;;;9.38;100.00
52535;BME280;38443;53.164;5.802;2023-12-28T11:36:53;100842.34;;;9.40;100.00
52535;BME280;38443;53.164;5.802;2023-12-28T11:41:50;100844.16;;;9.38;100.00
52535;BME280;38443;53.164;5.802;2023-12-28T11:44:16;100855.81;;;9.35;100.00
52535;BME280;38443;53.164;5.802;2023-12-28T11:46:42;100848.78;;;9.31;100.00
52535;BME280;38443;53.164;5.802;2023-12-28T11:49:08;100853.31;;;9.28;100.00
52535;BME280;38443;53.164;5.802;2023-12-28T11:51:36;100836.47;;;9.26;100.00
52535;BME280;38443;53.164;5.802;2023-12-28T11:54:03;100842.72;;;9.25;100.00
52535;BME280;38443;53.164;5.802;2023-12-28T11:56:31;100833.91;;;9.21;100.00
52535;BME280;38443;53.164;5.802;2023-12-28T11:58:58;100834.84;;;9.20;100.00
52535;BME280;38443;53.164;5.802;2023-12-28T12:01:24;100826.84;;;9.18;100.00
52535;BME280;38443;53.164;5.802;2023-12-28T12:03:49;100819.78;;;9.16;100.00
52535;BME280;38443;53.164;5.802;2023-12-28T12:06:15;100834.94;;;9.15;100.00
52535;BME280;38443;53.164;5.802;2023-12-28T12:08:45;100811.75;;;9.16;100.00
52535;BME280;38443;53.164;5.802;2023-12-28T12:11:11;100833.13;;;9.16;100.00
52535;BME280;38443;53.164;5.802;2023-12-28T12:13:36;100829.63;;;9.14;100.00
52535;BME280;38443;53.164;5.802;2023-12-28T12:16:02;100818.03;;;9.15;100.00
52535;BME280;38443;53.164;5.802;2023-12-28T12:18:31;100825.13;;;9.16;100.00
52535;BME280;38443;53.164;5.802;2023-12-28T12:20:56;100821.56;;;9.15;100.00
52535;BME280;38443;53.164;5.802;2023-12-28T12:23:22;100817.09;;;9.16;100.00
52535;BME280;38443;53.164;5.802;2023-12-28T12:25:47;100814.50;;;9.14;100.00
52535;BME280;38443;53.164;5.802;2023-12-28T12:28:12;100810.91;;;9.15;100.00
52535;BME280;38443;53.164;5.802;2023-12-28T12:30:38;100824.28;;;9.14;100.00
52535;BME280;38443;53.164;5.802;2023-12-28T12:33:03;100814.41;;;9.17;100.00
52535;BME280;38443;53.164;5.802;2023-12-28T12:35:29;100823.34;;;9.16;100.00
52535;BME280;38443;53.164;5.802;2023-12-28T12:37:54;100812.56;;;9.19;100.00
52535;BME280;38443;53.164;5.802;2023-12-28T12:40:20;100817.88;;;9.21;100.00
52535;BME280;38443;53.164;5.802;2023-12-28T12:42:53;100821.44;;;9.22;100.00
52535;BME280;38443;53.164;5.802;2023-12-28T12:45:19;100829.41;;;9.23;100.00
52535;BME280;38443;53.164;5.802;2023-12-28T12:47:46;100813.38;;;9.23;100.00
52535;BME280;38443;53.164;5.802;2023-12-28T12:50:11;100829.41;;;9.23;100.00
52535;BME280;38443;53.164;5.802;2023-12-28T12:52:36;100829.41;;;9.23;100.00
52535;BME280;38443;53.164;5.802;2023-12-28T12:55:02;100829.44;;;9.22;100.00
52535;BME280;38443;53.164;5.802;2023-12-28T12:57:29;100825.00;;;9.22;100.00